Time;durP1;ratioP1;P1;durP2;ratioP2;P2;SDS_P1;SDS_P2;PMS_P1;PMS_P2;Temp;Humidity;BMP_temperature;BMP_pressure;BME280_temperature;BME280_humidity;BME280_pressure;Samples;Min_cycle;Max_cycle;Signal;HPM_P1;HPM_P2
2022/11/18 00:00:54;;;;;;;2.80;1.52;;;10.90;99.90;;;;;;5003703;28;25063;-74
2022/11/18 00:03:19;;;;;;;2.67;1.70;;;10.90;99.90;;;;;;4998772;28;25059;-74
2022/11/18 00:05:56;;;;;;;6.72;2.05;;;11.00;99.90;;;;;;5000076;28;25115;-74
2022/11/18 00:08:23;;;;;;;2.75;1.63;;;11.00;99.90;;;;;;4990529;28;25144;-73
2022/11/18 00:10:48;;;;;;;4.20;1.58;;;11.00;99.90;;;;;;5005435;28;25057;-74
2022/11/18 00:16:07;;;;;;;3.55;1.60;;;11.00;99.90;;;;;;4981320;28;25115;-73
2022/11/18 00:18:33;;;;;;;5.60;1.75;;;11.00;99.90;;;;;;4987889;28;25108;-73
2022/11/18 00:21:08;;;;;;;6.68;1.95;;;11.00;99.90;;;;;;4996295;28;25079;-73
2022/11/18 00:23:34;;;;;;;5.13;1.80;;;11.10;99.90;;;;;;4994424;28;25153;-73
2022/11/18 00:26:12;;;;;;;4.57;1.98;;;11.20;99.90;;;;;;4997050;28;25081;-73
2022/11/18 00:28:38;;;;;;;2.50;1.50;;;11.10;99.90;;;;;;4991699;28;25105;-74
2022/11/18 00:31:10;;;;;;;5.57;1.85;;;11.20;99.90;;;;;;4989146;28;25074;-75
2022/11/18 00:33:36;;;;;;;8.20;2.20;;;11.20;99.90;;;;;;4977306;28;25075;-73
2022/11/18 00:36:03;;;;;;;6.47;1.90;;;11.20;99.90;;;;;;4991991;28;25122;-73
2022/11/18 00:38:29;;;;;;;3.08;1.65;;;11.10;99.90;;;;;;4989659;28;25086;-74
2022/11/18 00:41:03;;;;;;;5.53;2.10;;;11.20;99.90;;;;;;5007688;28;25145;-73
2022/11/18 00:43:29;;;;;;;5.70;2.20;;;11.20;99.90;;;;;;4985751;28;25073;-76
2022/11/18 00:45:55;;;;;;;7.70;1.98;;;11.30;99.90;;;;;;4987853;28;25102;-73
2022/11/18 00:48:21;;;;;;;6.70;2.08;;;11.30;99.90;;;;;;4993517;28;25099;-74
2022/11/18 00:50:51;;;;;;;6.13;2.03;;;11.40;99.90;;;;;;4987430;28;25138;-72
2022/11/18 00:53:17;;;;;;;3.38;1.70;;;11.30;99.90;;;;;;4987071;28;25081;-74
2022/11/18 00:55:43;;;;;;;6.43;2.30;;;11.20;99.90;;;;;;4985322;28;25059;-72
2022/11/18 00:58:13;;;;;;;5.05;2.00;;;11.30;99.90;;;;;;4992001;28;25066;-73
2022/11/18 01:00:40;;;;;;;4.22;1.95;;;11.40;99.90;;;;;;4986278;28;25135;-73
2022/11/18 01:03:05;;;;;;;5.45;2.20;;;11.40;99.90;;;;;;4986293;28;25072;-75
2022/11/18 01:05:31;;;;;;;5.05;2.50;;;11.30;99.90;;;;;;4987933;28;25072;-74
2022/11/18 01:07:56;;;;;;;9.20;2.60;;;11.40;99.90;;;;;;5001496;28;25073;-73
2022/11/18 01:10:22;;;;;;;2.70;1.95;;;11.50;99.90;;;;;;4982628;28;25096;-72
2022/11/18 01:15:41;;;;;;;8.68;2.60;;;11.50;99.90;;;;;;4984751;28;25078;-74
2022/11/18 01:18:06;;;;;;;7.63;2.40;;;11.40;99.90;;;;;;5012569;28;25127;-75
2022/11/18 01:20:33;;;;;;;4.53;2.70;;;11.40;99.90;;;;;;5010345;28;25064;-73
2022/11/18 01:22:59;;;;;;;3.42;2.20;;;11.40;99.90;;;;;;4991688;28;25071;-74
2022/11/18 01:25:24;;;;;;;6.50;2.92;;;11.50;99.90;;;;;;4989312;28;25133;-74
2022/11/18 01:27:50;;;;;;;4.60;2.80;;;11.50;99.90;;;;;;4993512;28;25062;-73
2022/11/18 01:30:16;;;;;;;7.50;2.58;;;11.40;99.90;;;;;;4984686;28;25143;-74
2022/11/18 01:32:42;;;;;;;6.70;2.80;;;11.50;99.90;;;;;;4993824;28;25061;-74
2022/11/18 01:35:09;;;;;;;5.13;2.60;;;11.50;99.90;;;;;;4995230;28;25078;-73
2022/11/18 01:37:35;;;;;;;8.60;2.78;;;11.50;99.90;;;;;;4984409;28;25087;-74
2022/11/18 01:40:01;;;;;;;6.85;3.28;;;11.50;99.90;;;;;;4992733;28;25109;-74
2022/11/18 01:42:26;;;;;;;13.43;3.40;;;11.50;99.90;;;;;;4997626;28;25083;-74
2022/11/18 01:45:22;;;;;;;5.95;2.88;;;11.60;99.90;;;;;;4991521;28;25061;-74
2022/11/18 01:47:54;;;;;;;5.25;3.10;;;11.60;99.90;;;;;;4980258;28;25133;-73
2022/11/18 01:50:22;;;;;;;5.75;2.90;;;11.60;99.90;;;;;;4990937;28;25108;-73
2022/11/18 01:52:49;;;;;;;9.10;3.40;;;11.60;99.90;;;;;;4988363;28;25110;-73
2022/11/18 01:55:27;;;;;;;9.68;3.20;;;11.60;99.90;;;;;;5002328;28;25061;-73
2022/11/18 01:58:02;;;;;;;8.00;3.28;;;11.60;99.90;;;;;;5001090;28;25093;-74
2022/11/18 02:00:28;;;;;;;5.78;2.55;;;11.60;99.90;;;;;;5000049;28;25153;-73
2022/11/18 02:02:54;;;;;;;9.02;3.10;;;11.70;99.90;;;;;;4983199;28;25113;-74
2022/11/18 02:05:20;;;;;;;8.82;3.00;;;11.60;99.90;;;;;;5002752;28;25068;-75
2022/11/18 02:07:46;;;;;;;6.63;2.90;;;11.60;99.90;;;;;;4978666;28;25068;-75
2022/11/18 02:10:22;;;;;;;5.70;2.83;;;11.60;99.90;;;;;;4983792;28;25099;-74
2022/11/18 02:12:49;;;;;;;6.07;3.00;;;11.70;99.90;;;;;;4992620;28;25061;-74
2022/11/18 02:15:16;;;;;;;9.15;3.35;;;11.70;99.90;;;;;;4998620;28;25061;-75
2022/11/18 02:18:12;;;;;;;9.60;3.38;;;11.60;99.90;;;;;;5013335;28;25055;-76
2022/11/18 02:20:45;;;;;;;10.63;3.35;;;11.60;99.90;;;;;;4989694;28;25075;-73
2022/11/18 02:23:42;;;;;;;9.60;3.42;;;11.60;99.90;;;;;;4997742;28;25068;-74
2022/11/18 02:26:29;;;;;;;4.30;3.10;;;11.80;99.90;;;;;;4992339;28;25073;-73
2022/11/18 02:29:18;;;;;;;6.05;3.15;;;11.70;99.90;;;;;;4983548;28;25065;-73
2022/11/18 02:32:10;;;;;;;5.70;3.22;;;11.80;99.90;;;;;;4997935;28;25094;-73
2022/11/18 02:34:44;;;;;;;6.47;3.38;;;11.90;99.90;;;;;;4985773;28;25067;-74
2022/11/18 02:37:29;;;;;;;7.85;2.90;;;11.80;99.90;;;;;;4991209;28;25100;-73
2022/11/18 02:40:10;;;;;;;10.02;3.10;;;11.80;99.90;;;;;;4984448;28;25134;-75
2022/11/18 02:42:38;;;;;;;7.07;3.20;;;11.80;99.90;;;;;;4985250;28;25056;-74
2022/11/18 02:45:08;;;;;;;9.43;2.80;;;11.80;99.90;;;;;;4995877;28;25071;-74
2022/11/18 02:47:36;;;;;;;8.63;3.13;;;11.80;99.90;;;;;;4994497;28;25099;-74
2022/11/18 02:50:08;;;;;;;7.40;3.35;;;11.90;99.90;;;;;;4999842;28;25079;-74
2022/11/18 02:52:37;;;;;;;7.33;3.43;;;11.90;99.90;;;;;;5002208;28;25133;-75
2022/11/18 02:55:06;;;;;;;5.43;3.10;;;11.90;99.90;;;;;;4989036;28;25093;-74
2022/11/18 02:57:34;;;;;;;5.82;3.17;;;11.90;99.90;;;;;;4989638;28;25146;-75
2022/11/18 02:59:59;;;;;;;11.82;3.17;;;11.90;99.90;;;;;;4986277;28;25371;-74
2022/11/18 03:02:25;;;;;;;6.13;3.38;;;11.80;99.90;;;;;;4992154;28;25127;-73
2022/11/18 03:04:55;;;;;;;8.65;3.17;;;11.80;99.90;;;;;;4984244;28;25107;-74
2022/11/18 03:07:26;;;;;;;9.90;3.25;;;11.90;99.90;;;;;;5009969;28;25062;-74
2022/11/18 03:09:53;;;;;;;6.50;3.40;;;11.90;99.90;;;;;;5011831;28;25092;-73
2022/11/18 03:12:54;;;;;;;7.43;3.20;;;11.80;99.90;;;;;;4988369;28;25118;-73
2022/11/18 03:15:28;;;;;;;10.07;3.53;;;11.90;99.90;;;;;;4987275;28;25099;-74
2022/11/18 03:18:08;;;;;;;9.82;4.10;;;11.90;99.90;;;;;;4983321;28;25092;-74
2022/11/18 03:20:40;;;;;;;7.32;3.63;;;12.00;99.90;;;;;;4996636;28;25076;-74
2022/11/18 03:23:47;;;;;;;6.88;4.22;;;11.90;99.90;;;;;;4982964;28;25081;-77
2022/11/18 03:26:23;;;;;;;11.02;4.13;;;11.80;99.90;;;;;;4951073;28;25060;-75
2022/11/18 03:28:57;;;;;;;9.32;4.07;;;12.00;99.90;;;;;;4983758;28;25100;-74
2022/11/18 03:31:35;;;;;;;9.15;4.28;;;11.80;99.90;;;;;;4987435;28;25049;-74
2022/11/18 03:34:41;;;;;;;9.45;4.07;;;11.90;99.90;;;;;;4982002;28;25090;-73
2022/11/18 03:37:11;;;;;;;11.68;4.07;;;11.80;99.90;;;;;;4982268;28;25074;-74
2022/11/18 03:39:41;;;;;;;9.82;3.75;;;11.80;99.90;;;;;;4986679;28;25064;-75
2022/11/18 03:42:13;;;;;;;9.85;3.35;;;11.80;99.90;;;;;;4988154;28;25072;-75
2022/11/18 03:44:42;;;;;;;8.63;3.40;;;11.80;99.90;;;;;;4982079;28;25135;-75
2022/11/18 03:47:18;;;;;;;8.75;3.92;;;11.90;99.90;;;;;;4990854;28;24753;-74
2022/11/18 03:49:51;;;;;;;8.63;3.80;;;11.90;99.90;;;;;;4983198;28;25078;-74
2022/11/18 03:52:21;;;;;;;9.10;3.97;;;11.90;99.90;;;;;;4985065;28;25079;-74
2022/11/18 03:54:51;;;;;;;12.70;3.90;;;11.80;99.90;;;;;;4997938;28;25153;-73
2022/11/18 03:57:31;;;;;;;7.68;3.85;;;11.90;99.90;;;;;;4990224;28;25058;-75
2022/11/18 04:00:05;;;;;;;8.70;3.90;;;11.90;99.90;;;;;;4986201;28;25102;-74
2022/11/18 04:02:31;;;;;;;9.77;4.40;;;11.70;99.90;;;;;;4979940;28;25137;-73
2022/11/18 04:04:58;;;;;;;8.82;3.97;;;11.70;99.90;;;;;;4993704;28;25067;-74
2022/11/18 04:07:52;;;;;;;5.55;3.20;;;11.70;99.90;;;;;;4984872;28;25114;-74
2022/11/18 04:10:22;;;;;;;7.95;3.65;;;11.70;99.90;;;;;;4999950;28;25107;-75
2022/11/18 04:13:04;;;;;;;6.90;3.90;;;11.70;99.90;;;;;;4993152;28;25111;-73
2022/11/18 04:15:31;;;;;;;6.60;3.67;;;11.70;99.90;;;;;;4984657;28;25078;-73
2022/11/18 04:17:57;;;;;;;9.25;3.47;;;11.70;99.90;;;;;;4999463;28;25148;-75
2022/11/18 04:20:23;;;;;;;9.00;3.83;;;11.60;99.90;;;;;;4990961;28;25151;-73
2022/11/18 04:22:49;;;;;;;7.82;3.42;;;11.70;99.90;;;;;;4994663;28;25089;-75
2022/11/18 04:25:15;;;;;;;11.15;3.65;;;11.60;99.90;;;;;;4986416;28;25093;-73
2022/11/18 04:27:40;;;;;;;9.77;3.88;;;11.70;99.90;;;;;;4985545;28;25057;-76
2022/11/18 04:30:07;;;;;;;9.05;3.60;;;11.60;99.90;;;;;;4985897;28;25049;-74
2022/11/18 04:32:32;;;;;;;4.82;3.30;;;11.60;99.90;;;;;;4987336;28;25099;-75
2022/11/18 04:34:58;;;;;;;8.40;3.65;;;11.60;99.90;;;;;;4985513;28;25108;-74
2022/11/18 04:37:24;;;;;;;4.90;3.35;;;11.50;99.90;;;;;;4981856;28;25106;-75
2022/11/18 04:39:50;;;;;;;7.53;3.45;;;11.60;99.90;;;;;;4982145;28;25049;-75
2022/11/18 04:42:16;;;;;;;8.07;3.38;;;11.50;99.90;;;;;;4986563;28;25065;-74
2022/11/18 04:44:41;;;;;;;8.50;3.80;;;11.50;99.90;;;;;;4987792;28;25059;-74
2022/11/18 04:47:07;;;;;;;8.75;3.55;;;11.40;99.90;;;;;;4984261;28;25084;-74
2022/11/18 04:49:34;;;;;;;9.52;3.47;;;11.40;99.90;;;;;;4986575;28;25094;-75
2022/11/18 04:52:00;;;;;;;7.00;3.42;;;11.50;99.90;;;;;;4988384;28;25180;-74
2022/11/18 04:54:27;;;;;;;9.25;3.38;;;11.60;99.90;;;;;;4981812;28;25093;-74
2022/11/18 04:56:53;;;;;;;9.80;3.25;;;11.70;99.90;;;;;;4987802;28;25074;-73
2022/11/18 04:59:22;;;;;;;9.68;3.63;;;11.60;99.90;;;;;;4979957;28;25076;-74
2022/11/18 05:01:48;;;;;;;7.03;3.15;;;11.60;99.90;;;;;;4984892;28;25070;-73
2022/11/18 05:04:17;;;;;;;9.75;3.03;;;11.70;99.90;;;;;;4985437;28;25060;-73
2022/11/18 05:06:42;;;;;;;9.10;3.40;;;11.60;99.90;;;;;;4999091;28;25062;-74
2022/11/18 05:09:08;;;;;;;8.88;3.67;;;11.50;99.90;;;;;;4991145;28;25070;-74
2022/11/18 05:14:18;;;;;;;9.07;2.95;;;11.60;99.90;;;;;;5007070;28;25086;-74
2022/11/18 05:16:44;;;;;;;10.90;3.40;;;11.60;99.90;;;;;;5009318;28;25079;-74
2022/11/18 05:19:09;;;;;;;10.32;3.20;;;11.70;99.90;;;;;;5010729;28;25079;-73
2022/11/18 05:21:36;;;;;;;7.50;3.28;;;11.70;99.90;;;;;;5009957;28;25047;-73
2022/11/18 05:24:02;;;;;;;9.27;3.08;;;11.70;99.90;;;;;;4990314;28;25086;-73
2022/11/18 05:26:29;;;;;;;6.13;2.83;;;11.70;99.90;;;;;;4990054;28;25136;-74
2022/11/18 05:28:55;;;;;;;8.40;2.88;;;11.70;99.90;;;;;;4991748;28;25115;-75
2022/11/18 05:31:21;;;;;;;8.82;3.28;;;11.80;99.90;;;;;;4992757;28;25095;-73
2022/11/18 05:33:46;;;;;;;8.10;2.95;;;11.90;99.90;;;;;;5007861;28;25061;-73
2022/11/18 05:36:15;;;;;;;7.18;2.95;;;11.90;99.90;;;;;;5012198;28;25086;-74
2022/11/18 05:38:41;;;;;;;10.15;2.70;;;11.90;99.90;;;;;;5008826;28;25064;-73
2022/11/18 05:41:07;;;;;;;5.47;2.80;;;12.00;99.90;;;;;;5011203;28;25104;-74
2022/11/18 05:43:34;;;;;;;6.47;3.33;;;12.00;99.90;;;;;;4994015;28;25077;-75
2022/11/18 05:46:00;;;;;;;7.05;2.80;;;12.00;99.90;;;;;;5000807;28;25109;-74
2022/11/18 05:48:26;;;;;;;6.78;2.80;;;12.00;99.90;;;;;;5005945;28;25070;-73
2022/11/18 05:50:53;;;;;;;10.00;2.92;;;12.10;99.90;;;;;;4999637;28;25054;-73
2022/11/18 05:53:21;;;;;;;4.68;2.67;;;12.00;99.90;;;;;;5004441;28;25070;-74
2022/11/18 05:55:50;;;;;;;6.88;2.80;;;12.10;99.90;;;;;;4989353;28;25069;-75
2022/11/18 05:58:16;;;;;;;6.22;2.63;;;12.00;99.90;;;;;;4989666;28;25139;-74
2022/11/18 06:00:43;;;;;;;5.88;3.40;;;12.00;99.90;;;;;;4989572;28;25070;-74
2022/11/18 06:03:15;;;;;;;5.70;2.63;;;12.00;99.90;;;;;;4988991;28;25061;-73
2022/11/18 06:05:41;;;;;;;5.97;3.50;;;12.10;99.90;;;;;;4989572;28;25112;-74
2022/11/18 06:08:09;;;;;;;5.75;3.22;;;12.00;99.90;;;;;;4989655;28;25090;-74
2022/11/18 06:10:36;;;;;;;5.28;3.60;;;12.10;99.90;;;;;;5005828;28;25052;-75
2022/11/18 06:13:07;;;;;;;6.25;3.25;;;12.10;99.90;;;;;;5002691;28;25064;-74
2022/11/18 06:15:39;;;;;;;7.88;3.60;;;12.10;99.90;;;;;;5009609;28;25073;-74
2022/11/18 06:18:18;;;;;;;8.38;2.97;;;12.00;99.90;;;;;;5000938;28;25072;-73
2022/11/18 06:20:45;;;;;;;7.40;3.20;;;11.90;99.90;;;;;;4996224;28;25104;-75
2022/11/18 06:23:10;;;;;;;8.07;3.55;;;12.00;99.90;;;;;;4996673;28;25087;-74
2022/11/18 06:25:40;;;;;;;9.23;3.83;;;12.00;99.90;;;;;;4992128;28;25093;-75
2022/11/18 06:28:08;;;;;;;7.32;3.53;;;12.00;99.90;;;;;;4997651;28;25034;-75
2022/11/18 06:30:33;;;;;;;8.27;3.60;;;11.90;99.90;;;;;;4994692;28;25139;-75
2022/11/18 06:32:59;;;;;;;5.68;3.38;;;11.90;99.90;;;;;;4995791;28;25074;-75
2022/11/18 06:35:25;;;;;;;9.32;3.58;;;11.80;99.90;;;;;;4996084;28;25105;-74
2022/11/18 06:37:50;;;;;;;9.38;4.22;;;11.80;99.90;;;;;;5002697;28;25072;-75
2022/11/18 06:40:16;;;;;;;12.00;3.40;;;11.80;99.90;;;;;;5002963;28;25074;-74
2022/11/18 06:45:26;;;;;;;14.00;3.20;;;11.90;99.90;;;;;;4997755;28;25115;-74
2022/11/18 06:47:55;;;;;;;6.35;3.17;;;12.00;99.90;;;;;;4992375;28;25096;-74
2022/11/18 06:50:21;;;;;;;8.38;3.40;;;12.00;99.90;;;;;;4987089;28;25090;-76
2022/11/18 06:52:47;;;;;;;9.68;3.25;;;12.00;99.90;;;;;;5006483;28;25107;-74
2022/11/18 06:55:12;;;;;;;6.95;3.67;;;12.10;99.90;;;;;;4993667;28;25062;-76
2022/11/18 06:57:38;;;;;;;8.73;3.97;;;12.10;99.90;;;;;;5006961;28;25091;-75
2022/11/18 07:00:04;;;;;;;5.57;3.40;;;12.00;99.90;;;;;;4999653;28;25040;-74
2022/11/18 07:02:30;;;;;;;6.28;2.75;;;12.10;99.90;;;;;;5003787;28;25079;-74
2022/11/18 07:04:56;;;;;;;11.82;5.05;;;12.20;99.90;;;;;;4990688;28;25081;-74
2022/11/18 07:07:22;;;;;;;5.68;2.97;;;12.20;99.90;;;;;;4980816;28;25068;-75
2022/11/18 07:09:47;;;;;;;5.15;3.00;;;12.10;99.90;;;;;;4989176;28;25064;-74
2022/11/18 07:12:13;;;;;;;14.20;3.55;;;12.20;99.90;;;;;;4989564;28;25125;-75
2022/11/18 07:14:38;;;;;;;10.90;3.72;;;12.10;99.90;;;;;;4987237;28;25079;-74
2022/11/18 07:17:05;;;;;;;10.68;3.40;;;12.00;99.90;;;;;;4986823;28;25067;-73
2022/11/18 07:19:30;;;;;;;10.10;3.78;;;12.00;99.90;;;;;;4995468;28;25102;-73
2022/11/18 07:21:58;;;;;;;6.88;3.63;;;12.10;99.90;;;;;;4990598;28;25058;-73
2022/11/18 07:24:23;;;;;;;11.93;3.20;;;12.10;99.90;;;;;;4983938;28;25121;-74
2022/11/18 07:26:51;;;;;;;6.88;3.20;;;12.10;99.90;;;;;;4983885;28;25158;-74
2022/11/18 07:29:16;;;;;;;8.95;3.15;;;12.20;99.90;;;;;;4988145;28;25118;-75
2022/11/18 07:31:42;;;;;;;8.07;3.28;;;12.20;99.90;;;;;;4986913;28;25097;-76
2022/11/18 07:34:08;;;;;;;6.35;3.47;;;12.30;99.90;;;;;;4981025;28;25068;-75
2022/11/18 07:36:33;;;;;;;7.47;3.47;;;12.30;99.90;;;;;;4989127;28;25071;-75
2022/11/18 07:39:00;;;;;;;11.55;3.70;;;12.20;99.90;;;;;;4996392;28;25086;-75
2022/11/18 07:41:28;;;;;;;7.78;3.60;;;12.40;99.90;;;;;;4992415;28;25153;-75
2022/11/18 07:43:55;;;;;;;9.07;3.92;;;12.50;99.90;;;;;;5002830;28;25106;-75
2022/11/18 07:46:26;;;;;;;8.93;3.65;;;12.50;99.90;;;;;;4991151;28;25065;-75
2022/11/18 07:48:54;;;;;;;8.13;3.30;;;12.60;99.90;;;;;;4989195;28;25074;-76
2022/11/18 07:51:24;;;;;;;13.20;3.58;;;12.60;99.90;;;;;;4992054;28;25072;-75
2022/11/18 07:53:50;;;;;;;7.43;4.50;;;12.50;99.90;;;;;;4993735;28;25109;-75
2022/11/18 07:56:17;;;;;;;11.10;3.15;;;12.50;99.90;;;;;;4988234;28;25069;-75
2022/11/18 07:58:43;;;;;;;10.07;3.20;;;12.60;99.90;;;;;;4990643;28;25171;-75
2022/11/18 08:01:10;;;;;;;10.30;3.65;;;12.70;99.90;;;;;;4989040;28;25088;-76
2022/11/18 08:03:36;;;;;;;10.52;3.55;;;12.50;99.90;;;;;;4992063;28;25130;-76
2022/11/18 08:06:04;;;;;;;5.15;2.65;;;12.60;99.90;;;;;;4991249;28;25126;-75
2022/11/18 08:08:30;;;;;;;8.27;3.55;;;12.50;99.90;;;;;;4998394;28;25073;-75
2022/11/18 08:10:57;;;;;;;10.00;3.55;;;12.70;99.90;;;;;;5012322;28;25065;-75
2022/11/18 08:13:23;;;;;;;10.27;3.80;;;12.70;99.90;;;;;;4992949;28;25102;-76
2022/11/18 08:15:49;;;;;;;5.60;3.30;;;12.80;99.90;;;;;;4999620;28;25146;-74
2022/11/18 08:18:15;;;;;;;10.18;3.30;;;12.60;99.90;;;;;;5001037;28;25085;-75
2022/11/18 08:20:40;;;;;;;12.07;3.30;;;12.70;99.90;;;;;;4996109;28;25073;-75
2022/11/18 08:23:06;;;;;;;10.15;3.47;;;12.80;99.90;;;;;;4995214;28;25063;-76
2022/11/18 08:25:32;;;;;;;6.72;3.35;;;13.00;99.90;;;;;;4987532;28;25134;-76
2022/11/18 08:27:57;;;;;;;8.00;3.35;;;13.00;99.90;;;;;;5009941;28;25067;-76
2022/11/18 08:30:23;;;;;;;9.70;3.40;;;12.90;99.90;;;;;;4993198;28;25047;-77
2022/11/18 08:32:48;;;;;;;7.10;3.15;;;12.80;99.90;;;;;;4988962;28;25077;-76
2022/11/18 08:35:14;;;;;;;12.95;4.18;;;12.80;99.90;;;;;;4991271;28;25134;-75
2022/11/18 08:37:41;;;;;;;8.18;3.75;;;12.80;99.90;;;;;;4989645;28;25096;-76
2022/11/18 08:40:08;;;;;;;6.10;3.35;;;12.90;99.90;;;;;;4992571;28;25134;-76
2022/11/18 08:42:33;;;;;;;11.32;3.58;;;12.90;99.90;;;;;;4991258;28;25064;-76
2022/11/18 08:44:59;;;;;;;8.27;3.88;;;13.00;99.90;;;;;;4991017;28;25121;-75
2022/11/18 08:47:25;;;;;;;5.65;3.08;;;13.10;99.90;;;;;;4991997;28;25151;-75
2022/11/18 08:49:51;;;;;;;7.07;3.15;;;13.20;99.90;;;;;;4982198;28;25002;-76
2022/11/18 08:52:16;;;;;;;7.03;3.10;;;13.20;99.90;;;;;;4996901;28;25136;-76
2022/11/18 08:54:42;;;;;;;6.07;3.50;;;13.30;99.90;;;;;;4995256;28;25079;-74
2022/11/18 08:57:07;;;;;;;9.45;3.30;;;13.40;99.90;;;;;;4994793;28;25079;-77
2022/11/18 08:59:33;;;;;;;11.10;3.20;;;13.30;99.90;;;;;;4990395;28;25100;-74
2022/11/18 09:01:59;;;;;;;12.43;2.75;;;13.30;99.90;;;;;;4997433;28;25062;-76
2022/11/18 09:04:24;;;;;;;7.30;3.05;;;13.30;99.90;;;;;;5001660;28;25097;-76
2022/11/18 09:06:50;;;;;;;9.05;3.15;;;13.10;99.90;;;;;;4998682;28;25075;-76
2022/11/18 09:09:15;;;;;;;7.97;3.28;;;13.20;99.90;;;;;;4999105;28;25064;-75
2022/11/18 09:11:41;;;;;;;9.80;3.80;;;13.20;99.90;;;;;;4989725;28;25068;-75
2022/11/18 09:14:09;;;;;;;7.32;3.08;;;13.10;99.90;;;;;;5004402;28;25075;-76
2022/11/18 09:16:35;;;;;;;7.18;3.10;;;13.10;99.90;;;;;;4997658;28;25105;-76
2022/11/18 09:19:01;;;;;;;6.43;3.58;;;13.10;99.90;;;;;;4991031;28;25095;-77
2022/11/18 09:21:26;;;;;;;10.65;3.03;;;13.10;99.90;;;;;;5011658;28;25096;-75
2022/11/18 09:23:53;;;;;;;7.57;2.97;;;13.20;99.90;;;;;;4987376;28;25089;-75
2022/11/18 09:26:22;;;;;;;9.98;3.15;;;13.20;99.90;;;;;;4991098;28;25062;-75
2022/11/18 09:28:48;;;;;;;7.32;2.80;;;13.20;99.90;;;;;;5000262;28;25064;-76
2022/11/18 09:31:16;;;;;;;13.07;3.53;;;13.30;99.90;;;;;;4993971;28;25145;-76
2022/11/18 09:33:42;;;;;;;12.68;4.22;;;13.20;99.90;;;;;;4987496;28;25128;-76
2022/11/18 09:36:20;;;;;;;10.75;3.30;;;13.20;99.90;;;;;;4991292;28;25096;-75
2022/11/18 09:38:46;;;;;;;11.23;3.63;;;13.20;99.90;;;;;;4992450;28;25138;-74
2022/11/18 09:41:19;;;;;;;11.95;3.90;;;13.20;99.90;;;;;;4988603;28;25117;-74
2022/11/18 09:44:12;;;;;;;12.38;4.47;;;13.10;99.90;;;;;;4989316;28;25095;-75
2022/11/18 09:47:08;;;;;;;13.65;3.58;;;13.20;99.90;;;;;;4993992;28;25067;-76
2022/11/18 09:49:36;;;;;;;9.20;3.60;;;13.30;99.90;;;;;;4994841;28;25069;-74
2022/11/18 09:52:05;;;;;;;7.22;3.38;;;13.20;99.90;;;;;;4992158;28;25090;-74
2022/11/18 09:54:34;;;;;;;12.55;3.40;;;13.20;99.90;;;;;;4991854;28;25087;-75
2022/11/18 09:57:00;;;;;;;11.68;4.00;;;13.30;99.90;;;;;;4987782;28;25067;-74
2022/11/18 09:59:30;;;;;;;8.32;3.88;;;13.40;99.90;;;;;;4995760;28;25052;-75
2022/11/18 10:02:12;;;;;;;11.60;3.50;;;13.40;99.90;;;;;;4992592;28;25090;-76
2022/11/18 10:04:39;;;;;;;13.65;3.72;;;13.40;99.90;;;;;;4984470;28;25150;-75
2022/11/18 10:07:35;;;;;;;12.52;4.60;;;13.40;99.90;;;;;;4988871;28;25072;-75
2022/11/18 10:10:20;;;;;;;11.75;3.30;;;13.40;99.90;;;;;;4990046;28;25071;-74
2022/11/18 10:13:01;;;;;;;12.60;3.80;;;13.50;99.90;;;;;;4989213;28;25138;-75
2022/11/18 10:15:38;;;;;;;10.23;3.53;;;13.60;99.90;;;;;;5007814;28;25059;-74
2022/11/18 10:18:26;;;;;;;6.30;3.13;;;13.80;99.90;;;;;;4999100;28;25072;-74
2022/11/18 10:21:14;;;;;;;10.95;3.45;;;13.90;99.90;;;;;;4997264;28;25090;-76
2022/11/18 10:24:06;;;;;;;15.20;3.85;;;13.80;99.90;;;;;;4987285;28;25138;-74
2022/11/18 10:26:34;;;;;;;10.73;3.58;;;14.00;99.90;;;;;;4985679;28;25106;-75
2022/11/18 10:28:59;;;;;;;9.88;4.00;;;13.90;99.90;;;;;;4985354;28;25063;-77
2022/11/18 10:31:25;;;;;;;8.68;3.55;;;13.90;99.90;;;;;;4997271;28;25090;-76
2022/11/18 10:33:58;;;;;;;15.63;3.70;;;14.00;99.90;;;;;;4985543;28;25089;-77
2022/11/18 10:36:30;;;;;;;10.88;3.20;;;14.00;99.90;;;;;;5001706;28;25064;-75
2022/11/18 10:39:08;;;;;;;11.20;4.03;;;14.20;99.90;;;;;;4993832;28;25066;-75
2022/11/18 10:41:40;;;;;;;7.43;3.17;;;14.30;99.90;;;;;;4994105;28;25146;-75
2022/11/18 10:44:26;;;;;;;6.30;3.33;;;14.30;99.90;;;;;;4992351;28;25088;-75
2022/11/18 10:46:52;;;;;;;5.90;3.67;;;14.50;99.90;;;;;;5000498;28;25116;-76
2022/11/18 10:49:17;;;;;;;8.23;3.42;;;14.40;99.90;;;;;;4987641;28;25161;-74
2022/11/18 10:52:02;;;;;;;10.38;4.38;;;14.50;99.90;;;;;;4994456;28;25127;-76
2022/11/18 10:54:28;;;;;;;9.00;3.92;;;14.50;99.90;;;;;;4986130;28;25065;-76
2022/11/18 10:57:23;;;;;;;11.95;4.50;;;14.60;99.90;;;;;;4988853;28;25069;-75
2022/11/18 10:59:55;;;;;;;9.88;4.95;;;14.40;99.90;;;;;;4985090;28;26179;-75
2022/11/18 11:02:33;;;;;;;7.32;4.18;;;14.50;99.90;;;;;;4984839;28;25065;-76
2022/11/18 11:05:03;;;;;;;13.68;5.20;;;14.40;99.90;;;;;;4986823;28;25091;-75
2022/11/18 11:07:31;;;;;;;11.00;5.53;;;14.20;99.90;;;;;;5017534;28;25116;-76
2022/11/18 11:10:21;;;;;;;12.43;5.07;;;14.00;99.90;;;;;;5001957;28;25073;-76
2022/11/18 11:13:03;;;;;;;6.68;4.40;;;13.90;99.90;;;;;;4992911;28;25142;-77
2022/11/18 11:15:44;;;;;;;13.10;5.13;;;13.90;99.90;;;;;;4982250;28;25125;-78
2022/11/18 11:21:16;;;;;;;13.15;4.80;;;13.90;99.90;;;;;;4977998;28;25076;-75
2022/11/18 11:23:43;;;;;;;11.18;5.72;;;13.80;99.90;;;;;;5004236;28;25066;-75
2022/11/18 11:26:30;;;;;;;13.32;4.55;;;13.50;99.90;;;;;;4991670;28;25189;-74
2022/11/18 11:29:06;;;;;;;6.43;3.83;;;13.50;99.90;;;;;;4988474;28;25062;-76
2022/11/18 11:31:52;;;;;;;7.50;3.80;;;13.50;99.90;;;;;;4993913;28;25068;-76
2022/11/18 11:34:38;;;;;;;18.92;4.80;;;13.40;99.90;;;;;;4983354;28;25097;-75
2022/11/18 11:37:18;;;;;;;16.85;4.60;;;13.40;99.90;;;;;;4985621;28;25054;-75
2022/11/18 11:40:28;;;;;;;12.27;4.82;;;13.40;99.90;;;;;;5008409;28;25128;-75
2022/11/18 11:43:21;;;;;;;9.68;3.80;;;13.60;99.90;;;;;;4986070;28;25069;-74
2022/11/18 11:46:21;;;;;;;6.55;4.13;;;13.40;99.90;;;;;;4992046;28;25055;-75
2022/11/18 11:49:06;;;;;;;14.50;4.28;;;13.40;99.90;;;;;;4984142;28;25082;-76
2022/11/18 11:51:43;;;;;;;11.52;4.72;;;13.50;99.90;;;;;;4989398;28;25100;-76
2022/11/18 11:54:33;;;;;;;11.55;4.40;;;13.40;99.90;;;;;;4989370;28;25069;-76
2022/11/18 11:57:26;;;;;;;11.98;4.70;;;13.40;99.90;;;;;;4980394;28;25134;-76
2022/11/18 11:59:56;;;;;;;9.93;4.78;;;13.50;99.90;;;;;;4991642;28;25088;-75
2022/11/18 12:02:50;;;;;;;13.85;4.57;;;13.40;99.90;;;;;;4991793;28;25081;-74
2022/11/18 12:05:39;;;;;;;7.43;4.43;;;13.40;99.90;;;;;;4988205;28;25095;-76
2022/11/18 12:08:14;;;;;;;14.07;5.68;;;13.30;99.90;;;;;;5003873;28;25136;-76
2022/11/18 12:10:55;;;;;;;7.40;4.78;;;13.40;99.90;;;;;;4996719;28;25084;-76
2022/11/18 12:13:45;;;;;;;11.35;4.90;;;13.30;99.90;;;;;;4996210;28;25149;-76
2022/11/18 12:16:35;;;;;;;12.63;5.45;;;13.30;99.90;;;;;;4998842;28;25149;-76
2022/11/18 12:19:12;;;;;;;13.38;6.20;;;13.30;99.90;;;;;;4984177;28;25062;-75
2022/11/18 12:21:46;;;;;;;12.60;6.40;;;13.20;99.90;;;;;;4996220;28;25092;-76
2022/11/18 12:24:37;;;;;;;14.93;6.32;;;13.10;99.90;;;;;;4990059;28;25101;-76
2022/11/18 12:27:19;;;;;;;17.00;7.72;;;13.10;99.90;;;;;;4989428;28;25131;-76
2022/11/18 12:29:47;;;;;;;11.68;7.13;;;13.20;99.90;;;;;;4985861;28;24793;-77
2022/11/18 12:32:35;;;;;;;13.55;6.82;;;13.10;99.90;;;;;;4985758;28;25071;-76
2022/11/18 12:35:11;;;;;;;18.20;7.03;;;13.10;99.90;;;;;;5001341;28;25158;-76
2022/11/18 12:37:43;;;;;;;19.70;6.78;;;13.10;99.90;;;;;;4993432;28;25167;-77
2022/11/18 12:40:29;;;;;;;12.18;5.90;;;13.00;99.90;;;;;;5008845;28;25077;-76
2022/11/18 12:45:42;;;;;;;15.07;7.07;;;12.90;99.90;;;;;;4984413;28;25101;-77
2022/11/18 12:48:23;;;;;;;16.27;7.20;;;12.90;99.90;;;;;;4996817;28;25142;-77
2022/11/18 12:50:54;;;;;;;14.45;7.40;;;12.90;99.90;;;;;;4991936;28;25065;-75
2022/11/18 12:53:52;;;;;;;18.42;7.13;;;12.80;99.90;;;;;;4993269;28;25067;-77
2022/11/18 12:56:23;;;;;;;14.50;7.07;;;12.80;99.90;;;;;;4982842;28;25147;-77
2022/11/18 12:58:54;;;;;;;16.33;7.20;;;12.90;99.90;;;;;;4985392;28;25102;-77
2022/11/18 13:01:23;;;;;;;18.07;8.27;;;13.10;99.90;;;;;;4982554;28;25103;-76
2022/11/18 13:03:50;;;;;;;13.95;7.82;;;13.00;99.90;;;;;;4988474;28;25122;-76
2022/11/18 13:06:30;;;;;;;16.73;7.78;;;12.90;99.90;;;;;;4984049;28;25120;-75
2022/11/18 13:09:02;;;;;;;12.80;7.47;;;12.80;99.90;;;;;;4988438;28;25074;-76
2022/11/18 13:11:45;;;;;;;14.43;6.78;;;12.70;99.90;;;;;;4985250;28;25143;-75
2022/11/18 13:17:51;;;;;;;15.00;6.90;;;13.00;99.90;;;;;;4985813;28;25146;-76
2022/11/18 13:20:29;;;;;;;11.00;6.80;;;13.00;99.90;;;;;;4998113;28;25059;-77
2022/11/18 13:25:44;;;;;;;12.85;6.38;;;12.90;99.90;;;;;;4981254;28;25081;-76
2022/11/18 13:28:13;;;;;;;23.65;7.35;;;13.00;99.90;;;;;;5002139;28;25102;-76